André Pereira

Olheiro - Fluminense
4 Abr 2027
Domingo
Processo

Personalidade

Adaptabilidade (3) Ambição (3) Controvérsia (12) Lealdade (7) Pressão (14) Profissionalismo (12) Espírito Esportivo (7) Temperamento (8)

Perfil

Estilo de Treinamento Democrático
Licença Continental B
Determinação 10
Gestão de Pessoas 5
Motivação 7
Disciplina 15
Satisfação no Trabalho
100%
Fadiga
0%
Função Olheiro
Salário 114.4K p/s
Contrato 14.03.2028

Desempenho

Comportamento Bom
Eficácia do Treinamento
43%
Desenvolvimento do Jogador
25%
Prevenção de Lesões
40%
Implementação Tática
40%

Eventos Recentes

Participou de uma reunião de recrutamento agora
Recomendou um alvo de transferência agora
Avaliou um jogador agora
Avaliou um jogador agora
Avaliou um jogador agora
Avaliou um jogador 7d atrás
Avaliou um jogador 7d atrás
Avaliou um jogador 7d atrás

Monitorando agora

183
Jogador Clube Status Habilidade Confiança Observado Última observação Último voto
Cesar Corona Veracruz Ativo 144 / 132 40% 13 03.04.2027 -
Gabriel Brazão Santos Ativo 136 / 143 40% 6 03.04.2027 -
Axel Openda KV Oostende Ativo 129 / 134 40% 5 03.04.2027 -
Pol Tristán Bradford City Ativo 118 / 127 40% 2 03.04.2027 -
Leandro Andrade Polissia Ativo 137 / 128 40% 3 03.04.2027 -
Martim Cunha Porto Ativo 108 / 100 40% 4 03.04.2027 -
Egoitz Arana Real Sociedad Ativo 113 / 106 40% 4 03.04.2027 -
Riley Owen Pergolettese Ativo 105 / 102 40% 1 03.04.2027 -
Nacer Tielemans Mouscron Ativo 127 / 143 40% 1 03.04.2027 -
João Palhinha Benfica Ativo 158 / 148 40% 8 30.03.2027 -
Hwang In-Beom Porto Ativo 142 / 152 40% 4 30.03.2027 -
Carlos Rodríguez Cruz Azul Ativo 132 / 145 40% 4 30.03.2027 -
Jonathan Arteaga Veracruz Ativo 111 / 111 40% 1 30.03.2027 -
Bernardo Lima Porto Ativo 90 / 104 40% 1 30.03.2027 -
Radek Vítek Middlesbrough Ativo 144 / 133 40% 7 28.03.2027 -
Adriel Torreense Ativo 120 / 121 40% 4 28.03.2027 -
Marquinhos Spartak Moscow Ativo 130 / 129 40% 5 28.03.2027 -
José Paradela Cruz Azul Ativo 146 / 131 40% 3 28.03.2027 -
Diogo Gonçalves Konyaspor Ativo 125 / 117 40% 1 28.03.2027 -
Louis Leroux FC Nantes Ativo 122 / 129 40% 3 26.03.2027 -
Martim Fernandes Porto Ativo 142 / 128 40% 1 26.03.2027 -
Eduardo Felicíssimo Sporting CP Ativo 105 / 125 40% 1 26.03.2027 -
Luis Romo Guadalajara Ativo 144 / 145 40% 4 24.03.2027 -
Murphy Cooper Plymouth Argyle Ativo 116 / 121 40% 5 24.03.2027 -
Lukáš Provod Slavia Prague Ativo 144 / 141 40% 5 24.03.2027 -
Haissem Hassan Bloemfontein Celtic Ativo 129 / 143 40% 5 23.03.2027 -
Brian Rodríguez Club America Ativo 132 / 135 40% 1 23.03.2027 -
Andrea Colpani Monza Ativo 133 / 133 40% 2 22.03.2027 -
Sebastián Córdova Pumas UNAM Ativo 129 / 136 40% 1 22.03.2027 -
Dany Mota Monza Ativo 141 / 131 40% 2 21.03.2027 -
Rabby Nzingoula West Bromwich Albion Ativo 117 / 120 40% 2 21.03.2027 -
Luca Orellano Monterrey Ativo 133 / 125 40% 1 21.03.2027 -
Tiago Freitas Benfica Ativo 104 / 120 40% 1 21.03.2027 -
Bernardo Fontes Braga Ativo 122 / 138 40% 5 18.03.2027 -
José Pachuca Puebla Ativo 105 / 106 40% 1 18.03.2027 -
Alejandro Zendejas Club America Ativo 144 / 133 40% 3 17.03.2027 -
Daniil Frolkin Fakel Ativo 116 / 118 40% 1 17.03.2027 -
Lorenzo Palmisani Frosinone Ativo 130 / 122 40% 1 17.03.2027 -
Zach Hemming Chesterfield Ativo 110 / 107 40% 1 17.03.2027 -
Juan Diego Castillo Vitoria Guimaraes Ativo 124 / 117 40% 6 13.03.2027 -
Christ Inao Oulaï Fiorentina Ativo 136 / 131 40% 1 12.03.2027 -
Lennon Miller Udinese Ativo 127 / 124 40% 1 12.03.2027 -
Antonio Gomis Vizela Ativo 115 / 131 40% 7 11.03.2027 -
Edoardo Corvi Parma Ativo 135 / 135 40% 1 11.03.2027 -
Soufiane Rahimi Al Ain Ativo 143 / 124 40% 2 10.03.2027 -
Daniel Banjaqui Benfica Ativo 105 / 111 40% 2 08.03.2027 -
Thorgan Nainggolan Mouscron Ativo 101 / 123 40% 1 08.03.2027 -
James Dornelly Peterborough United Ativo 98 / 110 40% 1 08.03.2027 -
Daniel Bragança Sporting CP Ativo 145 / 144 40% 1 08.03.2027 -
Orbelín Pineda Monterrey Ativo 142 / 134 40% 2 07.03.2027 -
Jordan Amissah Burton Albion Ativo 103 / 111 40% 1 06.03.2027 -
Vinícius Lira Santos Ativo 119 / 117 40% 1 04.03.2027 -
Leandro Martins Benfica Ativo 90 / 95 40% 1 04.03.2027 -
Bertrand Traoré Sunderland Ativo 127 / 140 40% 1 03.03.2027 -
Alpha Touré FC Metz Ativo 106 / 115 40% 1 02.03.2027 -
Efraín Álvarez Guadalajara Ativo 128 / 121 40% 3 01.03.2027 -
Chiquinho Alverca Ativo 134 / 133 40% 2 01.03.2027 -
Theo Bongonda Al-Faisaly Ativo 134 / 133 40% 1 27.02.2027 -
George Wickens Lincoln City Ativo 124 / 120 40% 4 26.02.2027 -
Taye Ashby-Hammond Walsall Ativo 104 / 117 40% 1 26.02.2027 -
Elia Caprile Cagliari Ativo 153 / 157 40% 1 26.02.2027 -
Michy Fellaini KV Oostende Ativo 133 / 131 40% 7 20.02.2027 -
Renan Lodi Atlético Mineiro Ativo 136 / 144 40% 7 20.02.2027 -
Iñaki Peña Panathinaikos Ativo 140 / 147 40% 2 18.02.2027 -
Nathan Bishop AFC Wimbledon Ativo 106 / 113 40% 2 18.02.2027 -
Vitor Hugo Lusitânia Lourosa Ativo 98 / 105 40% 2 16.02.2027 -
Beau Reus Waasland-Beveren Ativo 126 / 117 40% 1 16.02.2027 -
Mandla Jali SuperSport United Ativo 119 / 126 40% 3 15.02.2027 -
João Carvalho Estoril Praia Ativo 125 / 136 40% 3 14.02.2027 -
Michael Cooper Sheffield United Ativo 128 / 136 40% 3 12.02.2027 -
Carl Rushworth Coventry City Ativo 135 / 139 40% 2 12.02.2027 -
Matthieu Epolo Standard Liege Ativo 120 / 125 40% 1 12.02.2027 -
João Valido Chaves Ativo 116 / 116 40% 2 11.02.2027 -
Jesús Ricardo Angulo Toluca Ativo 137 / 128 40% 3 10.02.2027 -
Matheus Pereira Cruzeiro Ativo 141 / 135 40% 1 10.02.2027 -
Sam Tickle Wigan Athletic Ativo 125 / 116 40% 4 07.02.2027 -
Patrick Sequeira Casa Pia Ativo 119 / 120 40% 4 07.02.2027 -
Petar Stanić Ludogorets Ativo 136 / 123 40% 1 06.02.2027 -
Killian Cahill Leyton Orient Ativo 110 / 93 40% 1 05.02.2027 -
Jakub Stolarczyk Leicester City Ativo 135 / 133 40% 2 03.02.2027 -
Myles Roberts Doncaster Rovers Ativo 100 / 95 40% 1 03.02.2027 -
Sławomir Abramowicz Jagiellonia Ativo 116 / 114 40% 1 03.02.2027 -
Alfonso Pastor Maritimo Ativo 115 / 109 40% 6 02.02.2027 -
Ruslan Neshcheret Dynamo Kyiv Ativo 116 / 109 40% 1 02.02.2027 -
Andreas Pereira Palmeiras Ativo 145 / 145 40% 1 28.01.2027 -
Gianluca Prestianni Benfica Ativo 140 / 144 40% 1 24.01.2027 -
Evidence Billiat Ajax Cape Town Ativo 111 / 106 40% 1 22.01.2027 -
Jamie Cumming Oxford United Ativo 124 / 132 40% 1 22.01.2027 -
Pablo Rosario Porto Ativo 137 / 150 40% 2 21.01.2027 -
Marcelo Allende Mamelodi Sundowns Ativo 129 / 138 40% 1 21.01.2027 -
Christian Joel Sánchez Leiria Ativo 118 / 115 40% 3 20.01.2027 -
Anthony Patterson Wrexham Ativo 128 / 135 40% 4 20.01.2027 -
Hugo Souza Corinthians Ativo 145 / 136 40% 2 19.01.2027 -
Santi García Gil Vicente Ativo 125 / 138 40% 3 17.01.2027 -
Nemanja Radonjić Crvena Zvezda Ativo 138 / 140 40% 1 17.01.2027 -
Enzo Díaz Sport Recife Ativo 134 / 139 40% 2 09.01.2027 -
Francis Amuzu Grêmio Ativo 137 / 138 40% 1 07.01.2027 -
Yehvann Diouf OGC Nice Ativo 148 / 138 40% 1 02.01.2027 -
Will Dennis Milton Keynes Dons Ativo 100 / 91 40% 2 29.12.2026 -
Dmytro Riznyk Shakhtar Ativo 138 / 134 40% 1 25.12.2026 -
Matheus Mendes Alverca Ativo 111 / 129 40% 2 23.12.2026 -
Paulo Henrique Vasco da Gama Ativo 138 / 130 40% 4 18.12.2026 -
Nuno Santos Sporting CP Ativo 138 / 148 40% 1 16.12.2026 -
Bruno Brígido America Mineiro Ativo 107 / 115 76% 1 14.12.2026 Aprovar
Marcel Ruiz Toluca Ativo 140 / 135 40% 1 14.12.2026 -
Ademir Bahia Rejeitado 124 / 117 76% 1 01.12.2026 -
Sem Westerveld Zaragoza Ativo 117 / 108 40% 1 29.11.2026 -
Marcos Antonio Sport Recife Ativo 135 / 130 40% 3 27.11.2026 -
Ismaël Bennacer Palmeiras Ativo 152 / 145 40% 1 27.11.2026 -
Vitor Carvalho Braga Ativo 137 / 144 40% 5 25.11.2026 -
Erik Lira Cruz Azul Ativo 133 / 127 40% 1 25.11.2026 -
Danilo Botafogo Ativo 141 / 142 40% 1 25.11.2026 -
William Cruzeiro Ativo 132 / 125 40% 4 24.11.2026 -
Gustaf Lagerbielke Braga Ativo 137 / 135 40% 3 24.11.2026 -
Kenny Tete Fulham Rejeitado 141 / 153 40% 3 24.11.2026 Rejeitar
Martín Tejón Maritimo Ativo 112 / 126 40% 2 23.11.2026 -
Vinícius Lopes Santa Clara Ativo 115 / 126 40% 3 22.11.2026 -
Jon Karrikaburu Burgos Ativo 124 / 120 40% 2 22.11.2026 -
Igor Nikić Mirandés Ativo 125 / 121 40% 1 21.11.2026 -
Jan Bednarek Porto Ativo 148 / 158 40% 3 15.11.2026 -
Zé Leite Oliveirense Ativo 120 / 120 40% 3 13.11.2026 -
Camilo Durán Bloemfontein Celtic Ativo 118 / 104 40% 3 13.11.2026 -
Nicolò Tresoldi Club Brugge Ativo 133 / 133 40% 1 13.11.2026 -
Sorriso Famalicao Ativo 127 / 132 40% 3 12.11.2026 -
Mésaque Djú Portimonense Ativo 109 / 106 40% 1 12.11.2026 -
Jalen Blesa Rio Ave Ativo 124 / 103 40% 2 11.11.2026 -
Leonardo Lelo Braga Ativo 139 / 133 40% 1 10.11.2026 -
Sikou Niakaté Braga Ativo 129 / 135 40% 3 09.11.2026 -
Lazar Carević Famalicao Ativo 122 / 134 40% 2 09.11.2026 -
Sergi Altimira Sporting CP Ativo 142 / 141 40% 3 09.11.2026 -
Tamble Monteiro Rio Ave Ativo 123 / 133 40% 4 07.11.2026 -
Giorgos Koutsias Famalicao Ativo 121 / 123 40% 1 07.11.2026 -
Rubén Duarte Pumas UNAM Ativo 135 / 126 40% 3 04.11.2026 -
Matthew Targett Hull City Ativo 128 / 135 40% 1 04.11.2026 -
Alfonso Trezza Arouca Ativo 129 / 134 40% 4 03.11.2026 -
Pablo Ramón Racing Club Ativo 130 / 126 40% 2 02.11.2026 -
Bright Arrey-Mbi Braga Ativo 127 / 128 40% 1 02.11.2026 -
Gustavo Silva Vitoria Guimaraes Ativo 126 / 124 40% 1 01.11.2026 -
Vitinho Botafogo Ativo 138 / 130 40% 2 31.10.2026 -
Felipe Parra Envigado Ativo 121 / 122 40% 1 31.10.2026 -
Gabriel Barbosa Farense Ativo 113 / 94 40% 2 30.10.2026 -
Henrique Araújo Casa Pia Ativo 127 / 119 40% 2 27.10.2026 -
Óscar Aranda Espanyol Ativo 120 / 127 40% 1 27.10.2026 -
Ignacio Russo Tigre Ativo 121 / 134 40% 1 27.10.2026 -
Lucas Veríssimo Santos Ativo 133 / 141 40% 1 26.10.2026 -
Percy Erasmus SuperSport United Ativo 123 / 134 40% 3 24.10.2026 -
Figueiredo Alverca Ativo 129 / 134 40% 3 22.10.2026 -
Lucas Duarte Felgueiras Ativo 99 / 101 40% 2 20.10.2026 -
Ángelo Preciado Atlético Mineiro Ativo 134 / 126 40% 1 19.10.2026 -
Fabrício Bruno Cruzeiro Ativo 142 / 134 40% 3 18.10.2026 -
Javi Sánchez Arouca Ativo 128 / 130 40% 1 17.10.2026 -
Victor Araujo Veracruz Ativo 145 / 143 40% 2 14.10.2026 -
Iván Martín Racing Club Ativo 142 / 145 40% 1 12.10.2026 -
Richard Ledezma Guadalajara Ativo 135 / 129 40% 1 10.10.2026 -
Luis Ingolotti Atlético Tucumán Ativo 118 / 129 40% 1 07.10.2026 -
Eduardo Quaresma Sporting CP Ativo 147 / 131 40% 1 06.10.2026 -
Isidro Pitta Bragantino Ativo 133 / 129 40% 1 05.10.2026 -
Nathan Trott Cardiff City Ativo 112 / 115 40% 1 04.10.2026 -
Manuel Baldé Wadi Degla Ativo 100 / 98 40% 1 30.09.2026 -
Nicolás Sumavil Platense Ativo 123 / 116 40% 1 30.09.2026 -
Lucas Cañizares Tondela Ativo 99 / 121 40% 1 30.09.2026 -
Matheus Henrique Cruzeiro Ativo 132 / 125 40% 1 29.09.2026 -
Zeno Debast Sporting CP Ativo 137 / 131 40% 1 29.09.2026 -
Luciano Juba Bahia Ativo 129 / 130 40% 2 28.09.2026 -
Luan Santos Imotski Ativo 92 / 78 40% 1 26.09.2026 -
Cheikh Sabaly Vancouver Whitecaps Ativo 129 / 125 40% 1 24.09.2026 -
Dominik Steczyk Académico de Viseu Ativo 97 / 99 40% 1 24.09.2026 -
Bryan Limbombe Maritimo Ativo 111 / 99 40% 1 23.09.2026 -
Korede Osundina Casa Pia Ativo 112 / 109 40% 1 21.09.2026 -
Dylan Nandín Arouca Ativo 110 / 102 40% 1 19.09.2026 -
Cezary Miszta Rio Ave Ativo 123 / 133 40% 2 15.09.2026 -
Lucão Gil Vicente Ativo 119 / 109 40% 1 15.09.2026 -
Richard Ríos Benfica Ativo 145 / 153 40% 2 12.09.2026 -
Joaquín Piquerez Palmeiras Ativo 136 / 132 40% 1 12.09.2026 -
Alberto Costa Porto Ativo 141 / 130 40% 1 11.09.2026 -
Mauro Arambarri River Plate Ativo 152 / 159 40% 1 08.09.2026 -
Nicolás Fernández Mercau New York City Ativo 136 / 134 40% 1 08.09.2026 -
Negueba Mirassol Ativo 118 / 133 40% 1 07.09.2026 -
Nehuén Pérez Porto Ativo 134 / 130 40% 2 06.09.2026 -
Iván Fresneda Sporting CP Ativo 132 / 155 40% 1 02.09.2026 -
Gonçalo Oliveira Benfica Ativo 110 / 98 40% 1 02.08.2026 -
José Sampaio Vizela Ativo 112 / 110 40% 1 01.08.2026 -
Josh Wynder Benfica Ativo 103 / 101 40% 1 01.08.2026 -